sensor_id;sensor_type;location;lat;lon;timestamp;P1;durP1;ratioP1;P2;durP2;ratioP2
15706;SDS011;7953;54.302;10.128;2022-09-21T00:01:25;2.77;;;2.20;;
15706;SDS011;7953;54.302;10.128;2022-09-21T00:03:54;3.37;;;2.40;;
15706;SDS011;7953;54.302;10.128;2022-09-21T00:06:22;3.90;;;2.33;;
15706;SDS011;7953;54.302;10.128;2022-09-21T00:08:50;3.17;;;2.20;;
15706;SDS011;7953;54.302;10.128;2022-09-21T00:11:18;3.23;;;2.27;;
15706;SDS011;7953;54.302;10.128;2022-09-21T00:13:51;2.33;;;2.13;;
15706;SDS011;7953;54.302;10.128;2022-09-21T00:16:19;2.90;;;2.40;;
15706;SDS011;7953;54.302;10.128;2022-09-21T00:18:46;4.70;;;2.30;;
15706;SDS011;7953;54.302;10.128;2022-09-21T00:21:14;3.40;;;2.10;;
15706;SDS011;7953;54.302;10.128;2022-09-21T00:23:41;2.97;;;2.30;;
15706;SDS011;7953;54.302;10.128;2022-09-21T00:26:09;3.87;;;2.20;;
15706;SDS011;7953;54.302;10.128;2022-09-21T00:28:37;3.17;;;2.43;;
15706;SDS011;7953;54.302;10.128;2022-09-21T00:31:07;3.63;;;2.60;;
15706;SDS011;7953;54.302;10.128;2022-09-21T00:33:36;3.60;;;2.40;;
15706;SDS011;7953;54.302;10.128;2022-09-21T00:36:04;5.40;;;2.60;;
15706;SDS011;7953;54.302;10.128;2022-09-21T00:38:32;2.90;;;2.40;;
15706;SDS011;7953;54.302;10.128;2022-09-21T00:41:00;3.00;;;2.17;;
15706;SDS011;7953;54.302;10.128;2022-09-21T00:43:27;2.87;;;2.30;;
15706;SDS011;7953;54.302;10.128;2022-09-21T00:45:56;3.93;;;2.40;;
15706;SDS011;7953;54.302;10.128;2022-09-21T00:48:28;2.43;;;2.23;;
15706;SDS011;7953;54.302;10.128;2022-09-21T00:50:57;5.00;;;2.43;;
15706;SDS011;7953;54.302;10.128;2022-09-21T00:53:28;3.67;;;2.60;;
15706;SDS011;7953;54.302;10.128;2022-09-21T00:55:56;3.27;;;2.70;;
15706;SDS011;7953;54.302;10.128;2022-09-21T00:58:25;3.33;;;2.70;;
15706;SDS011;7953;54.302;10.128;2022-09-21T01:00:55;6.60;;;3.13;;
15706;SDS011;7953;54.302;10.128;2022-09-21T01:03:24;3.10;;;2.57;;
15706;SDS011;7953;54.302;10.128;2022-09-21T01:05:53;3.20;;;2.90;;
15706;SDS011;7953;54.302;10.128;2022-09-21T01:08:20;2.40;;;2.20;;
15706;SDS011;7953;54.302;10.128;2022-09-21T01:10:54;2.43;;;2.10;;
15706;SDS011;7953;54.302;10.128;2022-09-21T01:13:36;2.53;;;2.20;;
15706;SDS011;7953;54.302;10.128;2022-09-21T01:16:14;2.60;;;2.30;;
15706;SDS011;7953;54.302;10.128;2022-09-21T01:18:45;5.27;;;2.60;;
15706;SDS011;7953;54.302;10.128;2022-09-21T01:21:19;4.47;;;2.10;;
15706;SDS011;7953;54.302;10.128;2022-09-21T01:23:51;2.80;;;2.50;;
15706;SDS011;7953;54.302;10.128;2022-09-21T01:26:52;2.80;;;2.50;;
15706;SDS011;7953;54.302;10.128;2022-09-21T01:29:40;2.03;;;1.87;;
15706;SDS011;7953;54.302;10.128;2022-09-21T01:32:12;2.53;;;2.13;;
15706;SDS011;7953;54.302;10.128;2022-09-21T01:34:43;5.23;;;2.20;;
15706;SDS011;7953;54.302;10.128;2022-09-21T01:37:16;2.83;;;2.30;;
15706;SDS011;7953;54.302;10.128;2022-09-21T01:39:46;2.13;;;1.97;;
15706;SDS011;7953;54.302;10.128;2022-09-21T01:42:17;2.77;;;2.50;;
15706;SDS011;7953;54.302;10.128;2022-09-21T01:44:48;2.80;;;2.53;;
15706;SDS011;7953;54.302;10.128;2022-09-21T01:47:16;2.27;;;2.07;;
15706;SDS011;7953;54.302;10.128;2022-09-21T01:49:45;4.03;;;2.17;;
15706;SDS011;7953;54.302;10.128;2022-09-21T01:52:17;2.20;;;1.90;;
15706;SDS011;7953;54.302;10.128;2022-09-21T01:54:48;2.40;;;2.20;;
15706;SDS011;7953;54.302;10.128;2022-09-21T01:57:20;4.00;;;2.40;;
15706;SDS011;7953;54.302;10.128;2022-09-21T01:59:53;3.37;;;2.90;;
15706;SDS011;7953;54.302;10.128;2022-09-21T02:02:23;3.10;;;2.73;;
15706;SDS011;7953;54.302;10.128;2022-09-21T02:05:07;3.03;;;2.67;;
15706;SDS011;7953;54.302;10.128;2022-09-21T02:07:34;5.00;;;3.93;;
15706;SDS011;7953;54.302;10.128;2022-09-21T02:10:02;3.90;;;3.10;;
15706;SDS011;7953;54.302;10.128;2022-09-21T02:12:32;2.73;;;2.53;;
15706;SDS011;7953;54.302;10.128;2022-09-21T02:15:01;2.80;;;2.27;;
15706;SDS011;7953;54.302;10.128;2022-09-21T02:17:33;3.67;;;3.20;;
15706;SDS011;7953;54.302;10.128;2022-09-21T02:20:07;3.77;;;2.80;;
15706;SDS011;7953;54.302;10.128;2022-09-21T02:22:44;3.37;;;3.00;;
15706;SDS011;7953;54.302;10.128;2022-09-21T02:25:20;3.93;;;2.70;;
15706;SDS011;7953;54.302;10.128;2022-09-21T02:27:55;7.60;;;2.53;;
15706;SDS011;7953;54.302;10.128;2022-09-21T02:30:33;2.50;;;2.30;;
15706;SDS011;7953;54.302;10.128;2022-09-21T02:33:04;4.80;;;2.73;;
15706;SDS011;7953;54.302;10.128;2022-09-21T02:35:36;3.50;;;2.80;;
15706;SDS011;7953;54.302;10.128;2022-09-21T02:38:07;3.10;;;2.43;;
15706;SDS011;7953;54.302;10.128;2022-09-21T02:40:41;3.33;;;2.80;;
15706;SDS011;7953;54.302;10.128;2022-09-21T02:43:17;2.70;;;2.50;;
15706;SDS011;7953;54.302;10.128;2022-09-21T02:45:50;3.63;;;2.50;;
15706;SDS011;7953;54.302;10.128;2022-09-21T02:48:23;3.07;;;2.77;;
15706;SDS011;7953;54.302;10.128;2022-09-21T02:50:55;2.97;;;2.40;;
15706;SDS011;7953;54.302;10.128;2022-09-21T02:53:28;4.60;;;2.70;;
15706;SDS011;7953;54.302;10.128;2022-09-21T02:55:58;4.47;;;2.70;;
15706;SDS011;7953;54.302;10.128;2022-09-21T02:58:28;2.83;;;2.53;;
15706;SDS011;7953;54.302;10.128;2022-09-21T03:00:57;3.23;;;2.57;;
15706;SDS011;7953;54.302;10.128;2022-09-21T03:03:25;2.50;;;2.30;;
15706;SDS011;7953;54.302;10.128;2022-09-21T03:05:52;3.33;;;2.60;;
15706;SDS011;7953;54.302;10.128;2022-09-21T03:08:20;3.37;;;2.60;;
15706;SDS011;7953;54.302;10.128;2022-09-21T03:10:47;2.93;;;2.57;;
15706;SDS011;7953;54.302;10.128;2022-09-21T03:13:14;4.20;;;2.83;;
15706;SDS011;7953;54.302;10.128;2022-09-21T03:15:42;3.00;;;2.70;;
15706;SDS011;7953;54.302;10.128;2022-09-21T03:18:11;4.90;;;2.67;;
15706;SDS011;7953;54.302;10.128;2022-09-21T03:20:39;2.87;;;2.63;;
15706;SDS011;7953;54.302;10.128;2022-09-21T03:23:10;3.20;;;2.60;;
15706;SDS011;7953;54.302;10.128;2022-09-21T03:25:37;3.40;;;3.00;;
15706;SDS011;7953;54.302;10.128;2022-09-21T03:28:04;2.93;;;2.73;;
15706;SDS011;7953;54.302;10.128;2022-09-21T03:30:31;3.13;;;2.77;;
15706;SDS011;7953;54.302;10.128;2022-09-21T03:32:59;3.53;;;2.53;;
15706;SDS011;7953;54.302;10.128;2022-09-21T03:35:27;3.23;;;2.70;;
15706;SDS011;7953;54.302;10.128;2022-09-21T03:37:54;5.23;;;3.40;;
15706;SDS011;7953;54.302;10.128;2022-09-21T03:40:22;5.53;;;3.00;;
15706;SDS011;7953;54.302;10.128;2022-09-21T03:42:53;2.70;;;2.50;;
15706;SDS011;7953;54.302;10.128;2022-09-21T03:45:21;3.47;;;2.90;;
15706;SDS011;7953;54.302;10.128;2022-09-21T03:47:52;3.17;;;2.83;;
15706;SDS011;7953;54.302;10.128;2022-09-21T03:50:20;4.47;;;2.80;;
15706;SDS011;7953;54.302;10.128;2022-09-21T03:52:48;2.70;;;2.50;;
15706;SDS011;7953;54.302;10.128;2022-09-21T03:55:15;3.93;;;2.80;;
15706;SDS011;7953;54.302;10.128;2022-09-21T03:57:42;3.33;;;3.03;;
15706;SDS011;7953;54.302;10.128;2022-09-21T04:00:09;6.40;;;3.10;;
15706;SDS011;7953;54.302;10.128;2022-09-21T04:02:37;3.63;;;3.13;;
15706;SDS011;7953;54.302;10.128;2022-09-21T04:05:05;3.60;;;3.30;;
15706;SDS011;7953;54.302;10.128;2022-09-21T04:07:32;3.80;;;2.87;;
15706;SDS011;7953;54.302;10.128;2022-09-21T04:10:01;3.33;;;3.00;;
15706;SDS011;7953;54.302;10.128;2022-09-21T04:12:30;2.97;;;2.60;;
15706;SDS011;7953;54.302;10.128;2022-09-21T04:14:58;3.50;;;2.67;;
15706;SDS011;7953;54.302;10.128;2022-09-21T04:17:25;3.20;;;2.40;;
15706;SDS011;7953;54.302;10.128;2022-09-21T04:19:52;3.87;;;3.10;;
15706;SDS011;7953;54.302;10.128;2022-09-21T04:22:19;4.83;;;3.10;;
15706;SDS011;7953;54.302;10.128;2022-09-21T04:24:48;3.57;;;3.27;;
15706;SDS011;7953;54.302;10.128;2022-09-21T04:27:17;6.07;;;3.27;;
15706;SDS011;7953;54.302;10.128;2022-09-21T04:29:44;3.10;;;2.80;;
15706;SDS011;7953;54.302;10.128;2022-09-21T04:32:11;3.90;;;3.30;;
15706;SDS011;7953;54.302;10.128;2022-09-21T04:34:38;4.67;;;3.50;;
15706;SDS011;7953;54.302;10.128;2022-09-21T04:37:05;3.40;;;3.10;;
15706;SDS011;7953;54.302;10.128;2022-09-21T04:39:32;4.57;;;3.43;;
15706;SDS011;7953;54.302;10.128;2022-09-21T04:42:00;5.57;;;3.73;;
15706;SDS011;7953;54.302;10.128;2022-09-21T04:44:29;7.10;;;3.33;;
15706;SDS011;7953;54.302;10.128;2022-09-21T04:46:56;4.60;;;3.17;;
15706;SDS011;7953;54.302;10.128;2022-09-21T04:49:24;3.80;;;3.40;;
15706;SDS011;7953;54.302;10.128;2022-09-21T04:51:51;3.30;;;2.80;;
15706;SDS011;7953;54.302;10.128;2022-09-21T04:54:18;4.27;;;3.33;;
15706;SDS011;7953;54.302;10.128;2022-09-21T04:56:45;4.37;;;3.53;;
15706;SDS011;7953;54.302;10.128;2022-09-21T04:59:12;4.20;;;3.57;;
15706;SDS011;7953;54.302;10.128;2022-09-21T05:01:40;3.73;;;3.33;;
15706;SDS011;7953;54.302;10.128;2022-09-21T05:04:07;3.20;;;2.90;;
15706;SDS011;7953;54.302;10.128;2022-09-21T05:06:34;5.13;;;3.33;;
15706;SDS011;7953;54.302;10.128;2022-09-21T05:09:01;3.80;;;2.90;;
15706;SDS011;7953;54.302;10.128;2022-09-21T05:11:45;5.20;;;3.63;;
15706;SDS011;7953;54.302;10.128;2022-09-21T05:14:11;6.53;;;4.03;;
15706;SDS011;7953;54.302;10.128;2022-09-21T05:16:40;5.60;;;4.23;;
15706;SDS011;7953;54.302;10.128;2022-09-21T05:19:07;4.37;;;3.97;;
15706;SDS011;7953;54.302;10.128;2022-09-21T05:21:33;4.07;;;3.53;;
15706;SDS011;7953;54.302;10.128;2022-09-21T05:24:01;3.63;;;3.33;;
15706;SDS011;7953;54.302;10.128;2022-09-21T05:26:28;4.73;;;4.33;;
15706;SDS011;7953;54.302;10.128;2022-09-21T05:28:55;5.13;;;3.77;;
15706;SDS011;7953;54.302;10.128;2022-09-21T05:31:30;4.80;;;3.63;;
15706;SDS011;7953;54.302;10.128;2022-09-21T05:34:07;4.97;;;3.10;;
15706;SDS011;7953;54.302;10.128;2022-09-21T05:36:47;3.67;;;3.03;;
15706;SDS011;7953;54.302;10.128;2022-09-21T05:39:20;3.27;;;2.97;;
15706;SDS011;7953;54.302;10.128;2022-09-21T05:41:47;5.67;;;3.20;;
15706;SDS011;7953;54.302;10.128;2022-09-21T05:44:14;5.20;;;4.07;;
15706;SDS011;7953;54.302;10.128;2022-09-21T05:46:44;4.67;;;3.73;;
15706;SDS011;7953;54.302;10.128;2022-09-21T05:49:17;3.90;;;3.50;;
15706;SDS011;7953;54.302;10.128;2022-09-21T05:51:53;3.87;;;3.40;;
15706;SDS011;7953;54.302;10.128;2022-09-21T05:54:30;4.13;;;3.73;;
15706;SDS011;7953;54.302;10.128;2022-09-21T05:57:09;5.63;;;4.40;;
15706;SDS011;7953;54.302;10.128;2022-09-21T05:59:45;4.37;;;3.97;;
15706;SDS011;7953;54.302;10.128;2022-09-21T06:02:23;6.40;;;5.33;;
15706;SDS011;7953;54.302;10.128;2022-09-21T06:05:03;6.10;;;5.50;;
15706;SDS011;7953;54.302;10.128;2022-09-21T06:07:35;6.23;;;5.47;;
15706;SDS011;7953;54.302;10.128;2022-09-21T06:10:02;8.33;;;6.30;;
15706;SDS011;7953;54.302;10.128;2022-09-21T06:12:30;6.37;;;5.77;;
15706;SDS011;7953;54.302;10.128;2022-09-21T06:14:57;7.70;;;6.27;;
15706;SDS011;7953;54.302;10.128;2022-09-21T06:17:23;7.57;;;6.37;;
15706;SDS011;7953;54.302;10.128;2022-09-21T06:19:51;7.17;;;6.13;;
15706;SDS011;7953;54.302;10.128;2022-09-21T06:22:19;6.20;;;5.60;;
15706;SDS011;7953;54.302;10.128;2022-09-21T06:24:46;8.83;;;7.17;;
15706;SDS011;7953;54.302;10.128;2022-09-21T06:27:13;6.57;;;5.97;;
15706;SDS011;7953;54.302;10.128;2022-09-21T06:29:40;7.47;;;5.73;;
15706;SDS011;7953;54.302;10.128;2022-09-21T06:32:07;5.73;;;5.23;;
15706;SDS011;7953;54.302;10.128;2022-09-21T06:34:34;5.97;;;5.30;;
15706;SDS011;7953;54.302;10.128;2022-09-21T06:37:02;5.90;;;5.37;;
15706;SDS011;7953;54.302;10.128;2022-09-21T06:39:30;5.17;;;4.63;;
15706;SDS011;7953;54.302;10.128;2022-09-21T06:41:57;5.53;;;5.03;;
15706;SDS011;7953;54.302;10.128;2022-09-21T06:44:24;7.17;;;4.93;;
15706;SDS011;7953;54.302;10.128;2022-09-21T06:46:51;8.43;;;5.67;;
15706;SDS011;7953;54.302;10.128;2022-09-21T06:49:17;5.50;;;5.00;;
15706;SDS011;7953;54.302;10.128;2022-09-21T06:51:46;6.03;;;4.90;;
15706;SDS011;7953;54.302;10.128;2022-09-21T06:54:13;4.70;;;4.30;;
15706;SDS011;7953;54.302;10.128;2022-09-21T06:56:42;5.10;;;4.70;;
15706;SDS011;7953;54.302;10.128;2022-09-21T06:59:09;5.90;;;4.90;;
15706;SDS011;7953;54.302;10.128;2022-09-21T07:01:36;6.60;;;5.20;;
15706;SDS011;7953;54.302;10.128;2022-09-21T07:04:03;5.97;;;5.37;;
15706;SDS011;7953;54.302;10.128;2022-09-21T07:06:33;5.47;;;4.93;;
15706;SDS011;7953;54.302;10.128;2022-09-21T07:09:00;6.53;;;5.63;;
15706;SDS011;7953;54.302;10.128;2022-09-21T07:11:27;6.00;;;5.43;;
15706;SDS011;7953;54.302;10.128;2022-09-21T07:13:55;6.07;;;5.47;;
15706;SDS011;7953;54.302;10.128;2022-09-21T07:16:23;8.33;;;5.77;;
15706;SDS011;7953;54.302;10.128;2022-09-21T07:18:51;5.67;;;5.17;;
15706;SDS011;7953;54.302;10.128;2022-09-21T07:21:18;6.77;;;5.53;;
15706;SDS011;7953;54.302;10.128;2022-09-21T07:23:45;5.97;;;5.40;;
15706;SDS011;7953;54.302;10.128;2022-09-21T07:26:12;6.23;;;5.63;;
15706;SDS011;7953;54.302;10.128;2022-09-21T07:28:40;7.07;;;6.27;;
15706;SDS011;7953;54.302;10.128;2022-09-21T07:31:09;7.40;;;6.23;;
15706;SDS011;7953;54.302;10.128;2022-09-21T07:33:38;6.17;;;5.57;;
15706;SDS011;7953;54.302;10.128;2022-09-21T07:36:05;7.23;;;5.93;;
15706;SDS011;7953;54.302;10.128;2022-09-21T07:38:35;8.13;;;6.10;;
15706;SDS011;7953;54.302;10.128;2022-09-21T07:41:04;10.33;;;5.40;;
15706;SDS011;7953;54.302;10.128;2022-09-21T07:43:31;4.83;;;4.37;;
15706;SDS011;7953;54.302;10.128;2022-09-21T07:45:58;6.27;;;4.73;;
15706;SDS011;7953;54.302;10.128;2022-09-21T07:48:28;5.10;;;3.80;;
15706;SDS011;7953;54.302;10.128;2022-09-21T07:50:59;4.57;;;3.23;;
15706;SDS011;7953;54.302;10.128;2022-09-21T07:53:29;2.77;;;2.57;;
15706;SDS011;7953;54.302;10.128;2022-09-21T07:55:59;3.17;;;2.87;;
15706;SDS011;7953;54.302;10.128;2022-09-21T07:58:27;3.87;;;2.90;;
15706;SDS011;7953;54.302;10.128;2022-09-21T08:01:11;4.13;;;3.13;;
15706;SDS011;7953;54.302;10.128;2022-09-21T08:03:40;5.50;;;2.73;;
15706;SDS011;7953;54.302;10.128;2022-09-21T08:06:07;3.43;;;2.70;;
15706;SDS011;7953;54.302;10.128;2022-09-21T08:08:34;2.37;;;2.17;;
15706;SDS011;7953;54.302;10.128;2022-09-21T08:11:01;4.70;;;3.00;;
15706;SDS011;7953;54.302;10.128;2022-09-21T08:13:29;3.60;;;2.30;;
15706;SDS011;7953;54.302;10.128;2022-09-21T08:15:56;2.47;;;1.80;;
15706;SDS011;7953;54.302;10.128;2022-09-21T08:18:23;3.07;;;2.30;;
15706;SDS011;7953;54.302;10.128;2022-09-21T08:20:55;2.30;;;2.10;;
15706;SDS011;7953;54.302;10.128;2022-09-21T08:23:23;2.70;;;2.43;;
15706;SDS011;7953;54.302;10.128;2022-09-21T08:25:56;4.83;;;2.50;;
15706;SDS011;7953;54.302;10.128;2022-09-21T08:28:24;5.37;;;2.70;;
15706;SDS011;7953;54.302;10.128;2022-09-21T08:30:51;2.47;;;2.27;;
15706;SDS011;7953;54.302;10.128;2022-09-21T08:33:18;2.27;;;2.07;;
15706;SDS011;7953;54.302;10.128;2022-09-21T08:35:50;3.80;;;3.00;;
15706;SDS011;7953;54.302;10.128;2022-09-21T08:38:20;4.60;;;2.67;;
15706;SDS011;7953;54.302;10.128;2022-09-21T08:40:47;3.47;;;2.40;;
15706;SDS011;7953;54.302;10.128;2022-09-21T08:43:15;9.93;;;6.53;;
15706;SDS011;7953;54.302;10.128;2022-09-21T08:45:48;7.63;;;5.27;;
15706;SDS011;7953;54.302;10.128;2022-09-21T08:48:18;5.37;;;3.37;;
15706;SDS011;7953;54.302;10.128;2022-09-21T08:50:48;4.33;;;3.93;;
15706;SDS011;7953;54.302;10.128;2022-09-21T08:53:20;1.93;;;1.70;;
15706;SDS011;7953;54.302;10.128;2022-09-21T08:55:54;4.90;;;2.80;;
15706;SDS011;7953;54.302;10.128;2022-09-21T08:58:22;3.37;;;1.37;;
15706;SDS011;7953;54.302;10.128;2022-09-21T09:00:55;2.53;;;1.50;;
15706;SDS011;7953;54.302;10.128;2022-09-21T09:03:45;1.67;;;1.20;;
15706;SDS011;7953;54.302;10.128;2022-09-21T09:06:19;3.93;;;1.20;;
15706;SDS011;7953;54.302;10.128;2022-09-21T09:09:08;1.53;;;1.10;;
15706;SDS011;7953;54.302;10.128;2022-09-21T09:11:49;2.73;;;1.30;;
15706;SDS011;7953;54.302;10.128;2022-09-21T09:14:39;4.00;;;1.40;;
15706;SDS011;7953;54.302;10.128;2022-09-21T09:17:24;2.70;;;1.10;;
15706;SDS011;7953;54.302;10.128;2022-09-21T09:19:59;1.10;;;0.97;;
15706;SDS011;7953;54.302;10.128;2022-09-21T09:22:31;2.73;;;1.33;;
15706;SDS011;7953;54.302;10.128;2022-09-21T09:25:05;1.90;;;1.10;;
15706;SDS011;7953;54.302;10.128;2022-09-21T09:27:42;6.10;;;1.33;;
15706;SDS011;7953;54.302;10.128;2022-09-21T09:30:13;1.73;;;1.20;;
15706;SDS011;7953;54.302;10.128;2022-09-21T09:32:44;3.83;;;1.30;;
15706;SDS011;7953;54.302;10.128;2022-09-21T09:35:20;1.60;;;1.00;;
15706;SDS011;7953;54.302;10.128;2022-09-21T09:37:51;1.30;;;0.80;;
15706;SDS011;7953;54.302;10.128;2022-09-21T09:40:28;1.30;;;0.90;;
15706;SDS011;7953;54.302;10.128;2022-09-21T09:43:07;1.13;;;0.80;;
15706;SDS011;7953;54.302;10.128;2022-09-21T09:45:39;1.30;;;0.90;;
15706;SDS011;7953;54.302;10.128;2022-09-21T09:48:17;1.87;;;1.00;;
15706;SDS011;7953;54.302;10.128;2022-09-21T09:50:54;2.47;;;0.80;;
15706;SDS011;7953;54.302;10.128;2022-09-21T09:53:21;2.90;;;1.00;;
15706;SDS011;7953;54.302;10.128;2022-09-21T09:55:52;1.33;;;1.10;;
15706;SDS011;7953;54.302;10.128;2022-09-21T09:58:21;0.60;;;0.60;;
15706;SDS011;7953;54.302;10.128;2022-09-21T10:01:01;0.80;;;0.80;;
15706;SDS011;7953;54.302;10.128;2022-09-21T10:03:28;0.80;;;0.80;;
15706;SDS011;7953;54.302;10.128;2022-09-21T10:05:55;1.17;;;0.50;;
15706;SDS011;7953;54.302;10.128;2022-09-21T10:08:30;0.60;;;0.60;;
15706;SDS011;7953;54.302;10.128;2022-09-21T10:11:08;0.73;;;0.60;;
15706;SDS011;7953;54.302;10.128;2022-09-21T10:13:37;1.97;;;0.60;;
15706;SDS011;7953;54.302;10.128;2022-09-21T10:16:10;2.07;;;0.90;;
15706;SDS011;7953;54.302;10.128;2022-09-21T10:18:42;0.80;;;0.70;;
15706;SDS011;7953;54.302;10.128;2022-09-21T10:21:15;2.33;;;0.80;;
15706;SDS011;7953;54.302;10.128;2022-09-21T10:23:45;1.60;;;0.73;;
15706;SDS011;7953;54.302;10.128;2022-09-21T10:26:16;1.07;;;0.57;;
15706;SDS011;7953;54.302;10.128;2022-09-21T10:28:54;1.57;;;0.53;;
15706;SDS011;7953;54.302;10.128;2022-09-21T10:31:23;0.80;;;0.70;;
15706;SDS011;7953;54.302;10.128;2022-09-21T10:33:52;0.73;;;0.60;;
15706;SDS011;7953;54.302;10.128;2022-09-21T10:36:30;1.67;;;0.70;;
15706;SDS011;7953;54.302;10.128;2022-09-21T10:39:16;1.23;;;0.93;;
15706;SDS011;7953;54.302;10.128;2022-09-21T10:41:50;0.73;;;0.50;;
15706;SDS011;7953;54.302;10.128;2022-09-21T10:44:26;0.47;;;0.47;;
15706;SDS011;7953;54.302;10.128;2022-09-21T10:46:58;1.20;;;0.40;;
15706;SDS011;7953;54.302;10.128;2022-09-21T10:49:30;0.60;;;0.60;;
15706;SDS011;7953;54.302;10.128;2022-09-21T10:51:57;2.57;;;0.60;;
15706;SDS011;7953;54.302;10.128;2022-09-21T10:54:27;0.60;;;0.60;;
15706;SDS011;7953;54.302;10.128;2022-09-21T10:56:59;0.60;;;0.60;;
15706;SDS011;7953;54.302;10.128;2022-09-21T10:59:32;1.63;;;0.50;;
15706;SDS011;7953;54.302;10.128;2022-09-21T11:02:07;1.70;;;0.47;;
15706;SDS011;7953;54.302;10.128;2022-09-21T11:05:05;0.80;;;0.40;;
15706;SDS011;7953;54.302;10.128;2022-09-21T11:07:38;0.50;;;0.50;;
15706;SDS011;7953;54.302;10.128;2022-09-21T11:10:12;0.70;;;0.40;;
15706;SDS011;7953;54.302;10.128;2022-09-21T11:12:52;0.40;;;0.40;;
15706;SDS011;7953;54.302;10.128;2022-09-21T11:15:31;0.40;;;0.40;;
15706;SDS011;7953;54.302;10.128;2022-09-21T11:18:05;0.70;;;0.50;;
15706;SDS011;7953;54.302;10.128;2022-09-21T11:20:41;1.83;;;0.40;;
15706;SDS011;7953;54.302;10.128;2022-09-21T11:23:15;1.23;;;0.87;;
15706;SDS011;7953;54.302;10.128;2022-09-21T11:25:54;1.20;;;1.00;;
15706;SDS011;7953;54.302;10.128;2022-09-21T11:28:31;5.40;;;3.70;;
15706;SDS011;7953;54.302;10.128;2022-09-21T11:31:09;1.10;;;1.00;;
15706;SDS011;7953;54.302;10.128;2022-09-21T11:33:56;1.40;;;1.30;;
15706;SDS011;7953;54.302;10.128;2022-09-21T11:36:36;0.67;;;0.50;;
15706;SDS011;7953;54.302;10.128;2022-09-21T11:39:13;0.43;;;0.43;;
15706;SDS011;7953;54.302;10.128;2022-09-21T11:41:50;0.40;;;0.30;;
15706;SDS011;7953;54.302;10.128;2022-09-21T11:44:31;0.63;;;0.40;;
15706;SDS011;7953;54.302;10.128;2022-09-21T11:47:14;1.07;;;0.33;;
15706;SDS011;7953;54.302;10.128;2022-09-21T11:49:53;0.70;;;0.50;;
15706;SDS011;7953;54.302;10.128;2022-09-21T11:52:36;0.30;;;0.30;;
15706;SDS011;7953;54.302;10.128;2022-09-21T11:55:21;2.50;;;1.80;;
15706;SDS011;7953;54.302;10.128;2022-09-21T11:57:59;0.73;;;0.60;;
15706;SDS011;7953;54.302;10.128;2022-09-21T12:00:40;0.40;;;0.30;;
15706;SDS011;7953;54.302;10.128;2022-09-21T12:03:26;0.30;;;0.30;;
15706;SDS011;7953;54.302;10.128;2022-09-21T12:06:24;10.10;;;5.73;;
15706;SDS011;7953;54.302;10.128;2022-09-21T12:09:12;4.20;;;2.60;;
15706;SDS011;7953;54.302;10.128;2022-09-21T12:12:05;1.10;;;0.90;;
15706;SDS011;7953;54.302;10.128;2022-09-21T12:14:38;0.47;;;0.40;;
15706;SDS011;7953;54.302;10.128;2022-09-21T12:17:12;0.60;;;0.30;;
15706;SDS011;7953;54.302;10.128;2022-09-21T12:19:45;0.33;;;0.30;;
15706;SDS011;7953;54.302;10.128;2022-09-21T12:22:20;0.67;;;0.40;;
15706;SDS011;7953;54.302;10.128;2022-09-21T12:24:50;0.30;;;0.30;;
15706;SDS011;7953;54.302;10.128;2022-09-21T12:27:23;1.77;;;0.50;;
15706;SDS011;7953;54.302;10.128;2022-09-21T12:29:55;0.97;;;0.47;;
15706;SDS011;7953;54.302;10.128;2022-09-21T12:32:32;0.50;;;0.27;;
15706;SDS011;7953;54.302;10.128;2022-09-21T12:35:12;0.20;;;0.20;;
15706;SDS011;7953;54.302;10.128;2022-09-21T12:37:43;0.63;;;0.40;;
15706;SDS011;7953;54.302;10.128;2022-09-21T12:40:15;0.33;;;0.33;;
15706;SDS011;7953;54.302;10.128;2022-09-21T12:42:49;0.30;;;0.30;;
15706;SDS011;7953;54.302;10.128;2022-09-21T12:45:25;0.27;;;0.27;;
15706;SDS011;7953;54.302;10.128;2022-09-21T12:47:59;1.20;;;0.40;;
15706;SDS011;7953;54.302;10.128;2022-09-21T12:50:34;0.30;;;0.30;;
15706;SDS011;7953;54.302;10.128;2022-09-21T12:53:05;0.20;;;0.20;;
15706;SDS011;7953;54.302;10.128;2022-09-21T12:55:41;1.67;;;0.30;;
15706;SDS011;7953;54.302;10.128;2022-09-21T12:58:17;0.23;;;0.23;;
15706;SDS011;7953;54.302;10.128;2022-09-21T13:00:59;1.23;;;0.33;;
15706;SDS011;7953;54.302;10.128;2022-09-21T13:03:36;1.27;;;0.37;;
15706;SDS011;7953;54.302;10.128;2022-09-21T13:06:21;0.40;;;0.37;;
15706;SDS011;7953;54.302;10.128;2022-09-21T13:09:13;0.30;;;0.30;;
15706;SDS011;7953;54.302;10.128;2022-09-21T13:11:50;0.40;;;0.40;;
15706;SDS011;7953;54.302;10.128;2022-09-21T13:14:20;1.03;;;0.40;;
15706;SDS011;7953;54.302;10.128;2022-09-21T13:16:52;0.70;;;0.30;;
15706;SDS011;7953;54.302;10.128;2022-09-21T13:19:24;0.30;;;0.27;;
15706;SDS011;7953;54.302;10.128;2022-09-21T13:22:09;1.07;;;0.30;;
15706;SDS011;7953;54.302;10.128;2022-09-21T13:24:43;0.37;;;0.37;;
15706;SDS011;7953;54.302;10.128;2022-09-21T13:30:28;0.30;;;0.30;;
15706;SDS011;7953;54.302;10.128;2022-09-21T13:33:00;0.50;;;0.50;;
15706;SDS011;7953;54.302;10.128;2022-09-21T13:35:51;0.40;;;0.40;;
15706;SDS011;7953;54.302;10.128;2022-09-21T13:38:26;0.40;;;0.40;;
15706;SDS011;7953;54.302;10.128;2022-09-21T13:40:56;0.40;;;0.30;;
15706;SDS011;7953;54.302;10.128;2022-09-21T13:46:49;0.53;;;0.40;;
15706;SDS011;7953;54.302;10.128;2022-09-21T13:52:20;0.40;;;0.40;;
15706;SDS011;7953;54.302;10.128;2022-09-21T13:54:52;2.00;;;0.40;;
15706;SDS011;7953;54.302;10.128;2022-09-21T13:57:23;1.97;;;0.60;;
15706;SDS011;7953;54.302;10.128;2022-09-21T14:02:58;0.60;;;0.60;;
15706;SDS011;7953;54.302;10.128;2022-09-21T14:05:29;4.27;;;0.90;;
15706;SDS011;7953;54.302;10.128;2022-09-21T14:08:02;0.83;;;0.50;;
15706;SDS011;7953;54.302;10.128;2022-09-21T14:10:32;0.60;;;0.40;;
15706;SDS011;7953;54.302;10.128;2022-09-21T14:13:02;2.30;;;0.53;;
15706;SDS011;7953;54.302;10.128;2022-09-21T14:15:48;2.43;;;0.80;;
15706;SDS011;7953;54.302;10.128;2022-09-21T14:18:20;0.30;;;0.30;;
15706;SDS011;7953;54.302;10.128;2022-09-21T14:21:08;0.93;;;0.60;;
15706;SDS011;7953;54.302;10.128;2022-09-21T14:23:42;0.63;;;0.47;;
15706;SDS011;7953;54.302;10.128;2022-09-21T14:26:58;1.60;;;0.57;;
15706;SDS011;7953;54.302;10.128;2022-09-21T14:29:32;0.33;;;0.33;;
15706;SDS011;7953;54.302;10.128;2022-09-21T14:32:10;1.07;;;0.50;;
15706;SDS011;7953;54.302;10.128;2022-09-21T14:34:42;0.40;;;0.40;;
15706;SDS011;7953;54.302;10.128;2022-09-21T14:37:14;2.03;;;0.70;;
15706;SDS011;7953;54.302;10.128;2022-09-21T14:39:54;2.63;;;0.93;;
15706;SDS011;7953;54.302;10.128;2022-09-21T14:42:24;0.60;;;0.60;;
15706;SDS011;7953;54.302;10.128;2022-09-21T14:44:55;0.70;;;0.57;;
15706;SDS011;7953;54.302;10.128;2022-09-21T14:47:32;1.00;;;0.50;;
15706;SDS011;7953;54.302;10.128;2022-09-21T14:50:14;0.63;;;0.60;;
15706;SDS011;7953;54.302;10.128;2022-09-21T14:53:12;0.60;;;0.60;;
15706;SDS011;7953;54.302;10.128;2022-09-21T14:56:00;1.87;;;0.57;;
15706;SDS011;7953;54.302;10.128;2022-09-21T14:58:43;0.50;;;0.50;;
15706;SDS011;7953;54.302;10.128;2022-09-21T15:01:32;1.40;;;0.60;;
15706;SDS011;7953;54.302;10.128;2022-09-21T15:04:09;0.93;;;0.50;;
15706;SDS011;7953;54.302;10.128;2022-09-21T15:06:49;2.30;;;0.60;;
15706;SDS011;7953;54.302;10.128;2022-09-21T15:09:44;0.40;;;0.40;;
15706;SDS011;7953;54.302;10.128;2022-09-21T15:12:44;0.80;;;0.60;;
15706;SDS011;7953;54.302;10.128;2022-09-21T15:15:23;0.87;;;0.50;;
15706;SDS011;7953;54.302;10.128;2022-09-21T15:17:57;0.70;;;0.70;;
15706;SDS011;7953;54.302;10.128;2022-09-21T15:20:27;1.47;;;0.60;;
15706;SDS011;7953;54.302;10.128;2022-09-21T15:22:56;0.83;;;0.60;;
15706;SDS011;7953;54.302;10.128;2022-09-21T15:25:24;3.43;;;1.00;;
15706;SDS011;7953;54.302;10.128;2022-09-21T15:27:55;0.70;;;0.63;;
15706;SDS011;7953;54.302;10.128;2022-09-21T15:30:23;1.53;;;0.80;;
15706;SDS011;7953;54.302;10.128;2022-09-21T15:32:53;0.83;;;0.70;;